Eddyville, Kentucky
Current Conditions -  °F | °C
As of 3:35 PM on Sunday 21 Dec 2014 (Local Time) from K5M9 Reporting Station
Clear Clear  
Wind Chill: 42°   Ceiling: Unl
Heat Index: 45°   Visibility: 10mi
Dew Point: 31°   Wind: 6mph
Humidity: 60%   Direction: 120°ESE
Pressure: 30.07"   Gusts: NA
Location:  37.09°N, 88.08°W
Report Text: K5M9 212135Z AUTO 12005KT 10SM CLR 07/00 A3007 RMK AO2 T00711003
Loading
Personal Weather Stations






























Interactive Weather Map New forecast layout! Learn more

10-Day Weather Forecast

Advertisements
Track Severe Weather on mobile